Time;durP1;ratioP1;P1;durP2;ratioP2;P2;SDS_P1;SDS_P2;PMS_P1;PMS_P2;Temp;Humidity;BMP_temperature;BMP_pressure;BME280_temperature;BME280_humidity;BME280_pressure;Samples;Min_cycle;Max_cycle;Signal;HPM_P1;HPM_P2
2023/01/03 00:00:04;;;;;;;6.50;2.35;;;;;;;19.19;44.16;102479.63;4988828;28;20542;-66
2023/01/03 00:02:29;;;;;;;4.63;2.00;;;;;;;19.16;44.10;102480.66;4982510;28;20042;-67
2023/01/03 00:04:55;;;;;;;4.78;1.90;;;;;;;19.12;43.98;102473.88;4988572;28;20079;-68
2023/01/03 00:07:32;;;;;;;6.33;2.13;;;;;;;19.14;43.94;102476.41;5002057;28;20088;-66
2023/01/03 00:10:02;;;;;;;4.15;2.00;;;;;;;19.11;43.85;102468.69;5002062;28;20326;-67
2023/01/03 00:12:28;;;;;;;4.28;2.00;;;;;;;19.08;43.91;102472.34;4984787;28;20538;-65
2023/01/03 00:14:54;;;;;;;6.32;2.05;;;;;;;19.10;43.78;102472.25;4992691;28;20037;-65
2023/01/03 00:17:19;;;;;;;4.68;2.00;;;;;;;19.08;43.79;102474.16;4989712;28;20038;-67
2023/01/03 00:19:45;;;;;;;4.90;2.00;;;;;;;19.05;43.90;102477.81;4982232;28;20467;-67
2023/01/03 00:22:12;;;;;;;4.78;2.10;;;;;;;19.03;43.80;102467.31;4982468;28;20026;-67
2023/01/03 00:24:38;;;;;;;4.45;1.88;;;;;;;19.06;43.81;102466.31;4982485;28;20041;-68
2023/01/03 00:27:03;;;;;;;4.10;1.92;;;;;;;19.02;43.64;102470.91;4994188;28;20034;-67
2023/01/03 00:29:29;;;;;;;4.55;2.00;;;;;;;19.01;43.64;102471.88;4981886;28;20034;-65
2023/01/03 00:31:55;;;;;;;4.78;1.90;;;;;;;18.99;43.57;102473.75;4982531;28;20042;-68
2023/01/03 00:34:20;;;;;;;4.97;1.83;;;;;;;19.01;43.67;102473.66;4982268;28;20442;-66
2023/01/03 00:36:46;;;;;;;4.15;1.70;;;;;;;18.96;43.70;102473.94;4982257;28;20054;-66
2023/01/03 00:39:12;;;;;;;3.85;2.03;;;;;;;18.96;43.41;102470.41;4981822;28;20034;-66
2023/01/03 00:41:38;;;;;;;4.05;1.83;;;;;;;18.94;43.44;102478.44;4991529;28;20052;-67
2023/01/03 00:44:03;;;;;;;4.40;1.73;;;;;;;18.93;43.46;102479.41;4998984;28;20429;-68
2023/01/03 00:46:28;;;;;;;5.38;2.10;;;;;;;18.95;43.41;102485.44;4991974;28;20038;-69
2023/01/03 00:48:54;;;;;;;3.83;1.77;;;;;;;18.93;43.42;102491.72;4981849;28;20379;-67
2023/01/03 00:51:22;;;;;;;5.05;2.15;;;;;;;18.93;43.31;102499.66;4987990;28;20033;-67
2023/01/03 00:53:48;;;;;;;4.70;2.03;;;;;;;18.89;43.41;102487.59;4982112;28;20030;-66
2023/01/03 00:56:17;;;;;;;5.05;1.90;;;;;;;18.90;43.44;102499.84;4985831;28;20034;-66
2023/01/03 00:58:43;;;;;;;3.38;1.83;;;;;;;18.88;43.34;102496.44;5000987;28;20088;-67
2023/01/03 01:01:11;;;;;;;3.92;2.00;;;;;;;18.89;43.12;102493.72;5001214;28;20486;-67
2023/01/03 01:03:39;;;;;;;4.80;2.15;;;;;;;18.87;43.17;102500.00;4983690;28;20069;-68
2023/01/03 01:06:16;;;;;;;5.03;2.13;;;;;;;18.85;43.14;102498.34;4981839;28;20390;-65
2023/01/03 01:08:43;;;;;;;3.42;1.90;;;;;;;18.86;43.03;102507.09;4981313;28;20041;-68
2023/01/03 01:11:09;;;;;;;4.50;2.10;;;;;;;18.80;42.97;102500.38;4992750;28;20029;-66
2023/01/03 01:13:35;;;;;;;5.50;2.03;;;;;;;18.80;42.84;102499.50;4985534;28;20053;-66
2023/01/03 01:16:06;;;;;;;4.05;1.95;;;;;;;18.79;43.08;102505.75;4981971;28;20042;-67
2023/01/03 01:18:32;;;;;;;5.38;2.00;;;;;;;18.79;43.07;102505.75;4994825;28;20038;-66
2023/01/03 01:20:57;;;;;;;3.65;1.90;;;;;;;18.81;42.87;102514.41;4981706;28;20509;-67
2023/01/03 01:23:22;;;;;;;3.85;1.98;;;;;;;18.79;42.79;102513.66;4981723;28;20118;-67
2023/01/03 01:25:48;;;;;;;4.35;1.90;;;;;;;18.77;43.20;102510.25;4991437;28;20038;-67
2023/01/03 01:28:13;;;;;;;5.82;3.25;;;;;;;18.74;42.82;102508.63;4995593;28;20026;-66
2023/01/03 01:30:39;;;;;;;4.63;1.80;;;;;;;18.72;42.68;102513.13;4993366;28;20088;-68
2023/01/03 01:33:04;;;;;;;4.00;2.00;;;;;;;18.73;42.62;102512.22;4985396;28;20914;-67
2023/01/03 01:35:30;;;;;;;4.07;1.85;;;;;;;18.74;42.74;102519.22;4986247;28;20272;-68
2023/01/03 01:37:56;;;;;;;4.32;1.98;;;;;;;18.74;42.76;102524.50;4989844;28;20502;-67
2023/01/03 01:40:21;;;;;;;3.65;1.90;;;;;;;18.72;42.48;102513.13;5004681;28;20131;-67
2023/01/03 01:45:30;;;;;;;4.50;2.00;;;;;;;18.72;42.47;102533.44;5005231;28;20044;-68
2023/01/03 01:47:58;;;;;;;3.88;1.90;;;;;;;18.66;42.30;102527.56;5002314;28;20030;-67
2023/01/03 01:50:41;;;;;;;4.10;1.95;;;;;;;18.68;42.56;102538.03;4985003;28;20092;-67
2023/01/03 01:53:26;;;;;;;4.28;1.90;;;;;;;18.68;42.47;102545.97;4985395;28;20042;-68
2023/01/03 01:55:57;;;;;;;4.88;1.90;;;;;;;18.66;42.33;102543.41;4989289;28;20030;-67
2023/01/03 01:58:26;;;;;;;4.47;1.85;;;;;;;18.65;42.34;102546.97;4992760;28;20038;-68
2023/01/03 02:00:52;;;;;;;4.18;1.92;;;;;;;18.62;42.59;102543.66;5001935;28;20394;-67
2023/01/03 02:03:18;;;;;;;4.05;1.88;;;;;;;18.62;42.49;102541.88;4988291;28;20044;-66
2023/01/03 02:05:47;;;;;;;3.72;1.80;;;;;;;18.61;42.43;102539.31;4998204;28;20478;-68
2023/01/03 02:08:13;;;;;;;5.07;1.83;;;;;;;18.63;42.32;102543.59;4999774;28;20030;-67
2023/01/03 02:10:38;;;;;;;4.35;2.20;;;;;;;18.63;42.40;102540.94;5004305;28;20045;-69
2023/01/03 02:13:26;;;;;;;4.17;1.90;;;;;;;18.61;42.46;102534.91;5004032;28;20109;-66
2023/01/03 02:16:19;;;;;;;4.05;1.90;;;;;;;18.62;42.35;102541.03;4984377;28;20101;-66
2023/01/03 02:18:53;;;;;;;4.25;1.85;;;;;;;18.61;42.14;102532.25;4985505;28;20042;-67
2023/01/03 02:21:41;;;;;;;;;;;;;;;18.68;42.32;102543.31;5004586;28;20037;-67
2023/01/03 02:24:32;;;;;;;4.53;1.92;;;;;;;18.62;42.26;102551.59;4986509;28;19944;-67
2023/01/03 02:27:25;;;;;;;3.35;1.70;;;;;;;18.59;41.85;102546.47;4984367;28;20042;-67
2023/01/03 02:30:27;;;;;;;5.68;1.92;;;;;;;18.61;42.13;102555.16;4989969;28;20726;-67
2023/01/03 02:33:10;;;;;;;5.18;2.20;;;;;;;18.56;41.89;102551.94;5004079;28;20468;-69
2023/01/03 02:36:31;;;;;;;3.67;1.90;;;;;;;18.57;41.89;102556.28;4992734;28;20129;-68
2023/01/03 02:39:11;;;;;;;4.78;2.05;;;;;;;18.54;41.90;102553.81;4964683;28;20406;-69
2023/01/03 02:41:43;;;;;;;4.70;1.95;;;;;;;18.56;42.11;102544.00;4998437;28;20046;-66
2023/01/03 02:44:48;;;;;;;4.65;1.83;;;;;;;18.55;41.95;102548.44;4992464;28;20039;-69
2023/01/03 02:47:14;;;;;;;5.05;1.90;;;;;;;18.51;41.87;102546.91;4982153;28;20181;-67
2023/01/03 02:49:48;;;;;;;4.35;1.75;;;;;;;18.48;41.82;102549.72;4984167;28;20031;-69
2023/01/03 02:52:18;;;;;;;4.33;1.97;;;;;;;18.51;41.92;102551.34;4984197;28;20030;-67
2023/01/03 02:55:19;;;;;;;5.57;2.10;;;;;;;18.52;41.69;102547.75;4996041;28;20030;-68
2023/01/03 02:57:54;;;;;;;4.22;2.13;;;;;;;18.46;41.65;102544.53;4977735;28;20063;-67
2023/01/03 03:00:24;;;;;;;4.47;2.00;;;;;;;18.46;41.71;102544.53;4995592;28;20053;-69
2023/01/03 03:02:56;;;;;;;5.68;1.83;;;;;;;18.42;41.71;102540.38;5003818;28;20479;-68
2023/01/03 03:05:27;;;;;;;4.90;2.10;;;;;;;18.44;41.68;102540.28;5000479;28;20034;-68
2023/01/03 03:07:52;;;;;;;4.80;2.10;;;;;;;18.46;41.51;102547.16;4995787;28;20080;-68
2023/01/03 03:13:15;;;;;;;4.05;2.00;;;;;;;18.40;41.51;102544.84;4983685;28;20053;-67
2023/01/03 03:16:17;;;;;;;4.40;1.90;;;;;;;18.44;41.62;102556.97;4984234;28;20093;-70
2023/01/03 03:18:58;;;;;;;3.83;1.83;;;;;;;18.40;41.62;102550.13;5002746;28;20064;-68
2023/01/03 03:28:33;;;;;;;4.45;2.00;;;;;;;18.38;41.47;102541.47;4983359;28;20049;-68
2023/01/03 03:29:56;;;;;;;4.00;1.90;;;;;;;18.40;41.49;102547.50;4983033;28;20471;-66
2023/01/03 03:32:25;;;;;;;4.10;1.80;;;;;;;18.36;41.51;102543.34;4986613;28;20042;-66
2023/01/03 03:34:53;;;;;;;4.00;1.90;;;;;;;18.37;41.42;102542.38;5002499;28;20030;-67
2023/01/03 03:37:23;;;;;;;4.38;1.90;;;;;;;18.36;41.45;102545.97;4994450;28;20046;-67
2023/01/03 03:46:05;;;;;;;4.18;1.80;;;;;;;18.37;41.18;102545.03;4984215;28;20124;-67
2023/01/03 03:51:31;;;;;;;3.65;1.60;;;;;;;18.34;40.99;102542.59;4998341;28;20049;-69
2023/01/03 03:54:00;;;;;;;4.63;1.85;;;;;;;18.34;41.10;102553.16;5002125;28;20045;-68
2023/01/03 03:56:30;;;;;;;3.72;1.60;;;;;;;18.34;41.05;102547.00;4998183;28;20032;-67
2023/01/03 03:59:01;;;;;;;4.18;1.73;;;;;;;18.33;41.15;102555.88;4983009;28;20034;-66
2023/01/03 04:01:29;;;;;;;3.30;1.63;;;;;;;18.30;41.07;102547.16;4985357;28;20034;-67
2023/01/03 04:04:01;;;;;;;3.72;1.70;;;;;;;18.27;40.97;102547.31;4997522;28;20117;-68
2023/01/03 04:06:34;;;;;;;3.80;1.73;;;;;;;18.26;40.90;102536.84;4982528;28;20042;-69
2023/01/03 04:08:59;;;;;;;4.65;1.80;;;;;;;18.27;41.07;102546.47;4987847;28;20037;-67
2023/01/03 04:11:25;;;;;;;3.92;1.65;;;;;;;18.30;40.99;102552.44;5001754;28;20039;-69
2023/01/03 04:13:50;;;;;;;3.90;1.70;;;;;;;18.31;40.95;102553.31;4992210;28;20073;-69
2023/01/03 04:16:15;;;;;;;3.45;1.60;;;;;;;18.29;41.09;102555.16;4995424;28;20045;-68
2023/01/03 04:18:41;;;;;;;3.42;1.70;;;;;;;18.25;41.18;102543.94;4987940;28;20041;-68
2023/01/03 04:21:06;;;;;;;3.35;1.70;;;;;;;18.26;41.07;102552.69;4998972;28;20034;-69
2023/01/03 04:23:31;;;;;;;5.50;2.05;;;;;;;18.29;40.67;102552.53;4981340;28;20034;-69
2023/01/03 04:25:57;;;;;;;4.10;1.70;;;;;;;18.28;40.76;102548.19;4982332;28;20065;-69
2023/01/03 04:28:22;;;;;;;3.60;1.58;;;;;;;18.25;40.74;102543.09;4989566;28;20533;-68
2023/01/03 04:30:47;;;;;;;4.05;1.65;;;;;;;18.24;40.79;102544.00;5001523;28;20124;-67
2023/01/03 04:33:13;;;;;;;4.77;1.80;;;;;;;18.26;40.94;102550.03;5001956;28;20429;-69
2023/01/03 04:35:38;;;;;;;4.47;1.70;;;;;;;18.23;40.69;102544.94;5000903;28;20274;-66
2023/01/03 04:38:04;;;;;;;4.00;1.67;;;;;;;18.21;40.84;102536.25;4995312;28;20045;-66
2023/01/03 04:40:30;;;;;;;3.80;1.60;;;;;;;18.24;40.81;102546.66;4982135;28;20026;-68
2023/01/03 04:45:39;;;;;;;4.07;1.60;;;;;;;18.22;40.69;102549.38;4982223;28;20269;-68
2023/01/03 04:48:05;;;;;;;3.30;1.63;;;;;;;18.20;40.91;102548.63;4989168;28;20470;-67
2023/01/03 04:50:31;;;;;;;3.63;1.70;;;;;;;18.21;40.69;102558.22;4983497;28;20034;-67
2023/01/03 04:52:57;;;;;;;3.78;1.65;;;;;;;18.18;40.61;102546.97;4982238;28;20034;-68
2023/01/03 04:55:22;;;;;;;3.22;1.55;;;;;;;18.20;40.74;102542.47;4998918;28;20394;-67
2023/01/03 04:57:48;;;;;;;4.43;1.70;;;;;;;18.20;40.83;102547.75;4994961;28;20133;-68
2023/01/03 05:00:14;;;;;;;3.95;1.65;;;;;;;18.17;40.65;102540.03;4981919;28;20395;-69
2023/01/03 05:02:39;;;;;;;4.80;2.15;;;;;;;18.18;40.85;102542.56;4981007;28;20200;-67
2023/01/03 05:05:05;;;;;;;4.57;1.95;;;;;;;18.19;40.56;102544.25;4984532;28;20037;-66
2023/01/03 05:07:30;;;;;;;4.25;1.67;;;;;;;18.17;40.72;102527.66;4992616;28;20026;-68
2023/01/03 05:09:56;;;;;;;4.45;2.05;;;;;;;18.17;40.59;102529.47;5001608;28;20113;-66
2023/01/03 05:12:21;;;;;;;4.43;2.20;;;;;;;18.18;40.47;102546.97;4984981;28;20486;-67
2023/01/03 05:14:46;;;;;;;4.65;2.00;;;;;;;18.15;40.40;102531.31;4981981;28;20038;-67
2023/01/03 05:17:11;;;;;;;3.90;1.90;;;;;;;18.17;40.81;102540.03;4996879;28;20127;-66
2023/01/03 05:25:48;;;;;;;4.40;1.88;;;;;;;18.15;40.73;102537.47;4997113;28;20045;-65
2023/01/03 05:27:52;;;;;;;3.95;1.80;;;;;;;18.11;40.47;102531.47;4999244;28;20108;-66
2023/01/03 05:30:17;;;;;;;3.10;1.70;;;;;;;18.16;40.45;102533.88;4999712;28;20038;-67
2023/01/03 05:32:43;;;;;;;4.68;1.75;;;;;;;18.11;40.62;102520.09;5001553;28;20041;-67
2023/01/03 05:35:08;;;;;;;4.63;1.90;;;;;;;18.10;40.55;102518.38;4994439;28;20043;-68
2023/01/03 05:37:34;;;;;;;5.07;1.90;;;;;;;18.12;40.40;102525.28;4981814;28;20547;-67
2023/01/03 05:39:59;;;;;;;3.60;1.80;;;;;;;18.10;40.47;102510.47;4985982;28;20965;-68
2023/01/03 05:42:25;;;;;;;4.07;1.90;;;;;;;18.13;40.60;102507.66;5000787;28;20037;-67
2023/01/03 05:44:50;;;;;;;4.60;1.77;;;;;;;18.11;40.43;102512.16;4996193;28;20297;-67
2023/01/03 05:47:16;;;;;;;4.35;1.90;;;;;;;18.07;40.49;102516.78;4990731;28;20057;-68
2023/01/03 05:49:41;;;;;;;4.25;1.70;;;;;;;18.10;40.35;102524.53;4989479;28;20039;-66
2023/01/03 05:52:06;;;;;;;3.90;1.60;;;;;;;18.10;40.91;102523.66;4981599;28;20081;-67
2023/01/03 05:54:31;;;;;;;3.38;1.75;;;;;;;18.13;41.25;102519.09;5000775;28;20263;-67
2023/01/03 05:56:57;;;;;;;3.38;1.50;;;;;;;18.12;41.43;102519.16;4988299;28;20023;-69
2023/01/03 05:59:22;;;;;;;3.13;1.25;;;;;;;18.13;41.86;102507.66;4981010;28;20113;-68
2023/01/03 06:01:48;;;;;;;3.75;1.40;;;;;;;18.19;41.89;102514.41;4995445;28;20488;-66
2023/01/03 06:04:13;;;;;;;4.20;1.35;;;;;;;18.18;41.95;102508.25;4982517;28;20113;-66
2023/01/03 06:06:38;;;;;;;2.65;1.27;;;;;;;18.23;41.95;102510.63;4994050;28;20042;-67
2023/01/03 06:09:04;;;;;;;2.83;1.30;;;;;;;18.25;41.83;102501.69;4985355;28;20372;-66
2023/01/03 06:11:29;;;;;;;2.47;1.13;;;;;;;18.31;42.03;102495.25;5000621;28;20034;-66
2023/01/03 06:13:55;;;;;;;2.60;1.40;;;;;;;18.37;41.63;102507.22;4988661;28;20035;-67
2023/01/03 06:19:05;;;;;;;3.15;1.30;;;;;;;18.39;41.67;102485.09;4984562;28;20038;-68
2023/01/03 06:21:31;;;;;;;2.03;1.13;;;;;;;18.44;41.75;102498.03;5003367;28;20038;-68
2023/01/03 06:23:56;;;;;;;3.67;1.30;;;;;;;18.44;41.45;102490.13;5004020;28;20489;-68
2023/01/03 06:26:23;;;;;;;3.28;1.20;;;;;;;18.45;41.62;102495.31;5003783;28;20073;-67
2023/01/03 06:28:49;;;;;;;2.65;1.20;;;;;;;18.48;41.80;102491.63;5003492;28;20112;-67
2023/01/03 06:31:14;;;;;;;3.25;1.30;;;;;;;18.52;41.59;102487.03;4985943;28;20046;-66
2023/01/03 06:33:40;;;;;;;2.92;1.10;;;;;;;18.52;41.49;102479.97;4984532;28;20156;-65
2023/01/03 06:36:08;;;;;;;2.90;1.17;;;;;;;18.53;41.55;102484.28;4987827;28;20046;-67
2023/01/03 06:38:34;;;;;;;2.33;0.98;;;;;;;18.56;41.54;102485.91;4984180;28;20034;-66
2023/01/03 06:41:00;;;;;;;2.63;1.20;;;;;;;18.58;41.50;102481.41;5001163;28;20079;-67
2023/01/03 06:43:26;;;;;;;2.10;1.10;;;;;;;18.62;41.38;102489.06;4988701;28;20046;-65
2023/01/03 06:54:31;;;;;;;2.80;1.30;;;;;;;18.71;41.40;102471.84;4984030;28;20050;-68
2023/01/03 06:56:57;;;;;;;2.78;1.20;;;;;;;18.71;41.49;102455.13;4987234;28;20030;-67
2023/01/03 06:59:23;;;;;;;4.78;1.35;;;;;;;18.72;41.45;102473.53;4986034;28;20050;-66
2023/01/03 07:01:50;;;;;;;3.10;1.10;;;;;;;18.75;41.54;102475.16;4996921;28;20032;-69
2023/01/03 07:04:16;;;;;;;2.67;1.00;;;;;;;18.73;41.47;102477.88;4985547;28;20030;-67
2023/01/03 07:06:42;;;;;;;2.58;1.20;;;;;;;18.72;41.65;102472.69;5001060;28;20026;-66
2023/01/03 07:09:08;;;;;;;3.67;1.30;;;;;;;18.75;41.35;102486.56;5003273;28;20030;-66
2023/01/03 07:11:34;;;;;;;3.42;1.40;;;;;;;18.72;41.47;102483.25;5002840;28;20049;-67
2023/01/03 07:14:02;;;;;;;2.95;1.30;;;;;;;18.74;41.70;102500.72;4990866;28;20263;-67
2023/01/03 07:16:40;;;;;;;3.22;1.35;;;;;;;18.71;41.46;102518.50;4987327;28;20029;-66
2023/01/03 07:19:09;;;;;;;4.20;1.23;;;;;;;18.72;41.57;102509.66;4986361;28;20038;-69
2023/01/03 07:21:34;;;;;;;3.08;1.20;;;;;;;18.71;41.68;102519.38;4986708;28;20030;-68
2023/01/03 07:24:02;;;;;;;3.65;1.40;;;;;;;18.73;41.76;102512.22;4991991;28;20037;-68
2023/01/03 07:26:30;;;;;;;3.25;1.55;;;;;;;18.75;41.70;102515.59;4984938;28;20034;-67
2023/01/03 07:28:56;;;;;;;3.95;1.20;;;;;;;18.75;41.58;102509.47;5003033;28;20068;-64
2023/01/03 07:31:22;;;;;;;2.90;1.13;;;;;;;18.74;41.73;102510.41;5002453;28;20482;-69
2023/01/03 07:33:47;;;;;;;2.30;1.23;;;;;;;18.71;41.60;102506.19;4994431;28;20122;-67
2023/01/03 07:36:14;;;;;;;2.63;1.23;;;;;;;18.71;41.78;102511.47;4983518;28;20038;-68
2023/01/03 07:38:41;;;;;;;3.17;1.20;;;;;;;18.74;41.73;102511.28;4983090;28;20125;-68
2023/01/03 07:41:07;;;;;;;3.17;1.20;;;;;;;18.75;41.90;102507.69;4983207;28;20045;-69
2023/01/03 07:43:36;;;;;;;5.55;2.28;;;;;;;18.73;42.28;102504.28;4995510;28;20042;-66
2023/01/03 07:46:10;;;;;;;3.10;1.40;;;;;;;18.75;42.14;102507.69;4995564;28;20030;-65
2023/01/03 07:48:36;;;;;;;3.85;1.35;;;;;;;18.75;42.21;102509.47;5002993;28;20033;-66
2023/01/03 07:51:02;;;;;;;4.07;1.33;;;;;;;18.75;42.38;102514.75;4984140;28;20047;-67
2023/01/03 07:53:27;;;;;;;2.85;1.25;;;;;;;18.77;42.64;102528.72;4983225;28;20113;-67
2023/01/03 07:55:53;;;;;;;3.53;1.60;;;;;;;18.76;42.63;102522.59;4982777;28;20042;-65
2023/01/03 07:58:19;;;;;;;3.70;1.10;;;;;;;18.76;42.55;102519.97;4997904;28;20033;-68
2023/01/03 08:00:44;;;;;;;3.28;1.42;;;;;;;18.76;42.65;102532.31;4992965;28;20034;-67
2023/01/03 08:03:09;;;;;;;3.55;1.33;;;;;;;18.79;42.60;102526.88;4982916;28;20041;-65
2023/01/03 08:05:35;;;;;;;2.97;1.35;;;;;;;18.76;42.81;102530.53;4982834;28;20160;-65
2023/01/03 08:08:02;;;;;;;2.72;1.25;;;;;;;18.78;42.86;102538.34;4982746;28;20089;-65
2023/01/03 08:13:17;;;;;;;3.47;1.47;;;;;;;18.84;42.86;102545.97;5000645;28;20036;-70
2023/01/03 08:15:48;;;;;;;3.50;1.35;;;;;;;18.82;42.94;102545.19;4991946;28;20379;-67
2023/01/03 08:18:15;;;;;;;3.10;1.27;;;;;;;18.85;42.84;102552.97;4982673;28;20042;-67
2023/01/03 08:20:40;;;;;;;4.07;1.30;;;;;;;18.84;42.85;102554.75;4978400;28;20080;-71
2023/01/03 08:23:06;;;;;;;3.22;1.20;;;;;;;18.88;42.73;102563.31;4987445;28;20113;-68
2023/01/03 08:25:31;;;;;;;4.47;1.50;;;;;;;18.90;42.39;102563.25;4982867;28;20625;-69
2023/01/03 08:27:57;;;;;;;5.60;1.38;;;;;;;18.90;42.59;102553.53;4983556;28;20064;-69
2023/01/03 08:30:23;;;;;;;4.90;1.50;;;;;;;18.91;42.66;102557.03;4988313;28;20041;-69
2023/01/03 08:32:48;;;;;;;4.18;1.60;;;;;;;18.89;42.73;102554.47;4981485;28;20464;-72
2023/01/03 08:35:15;;;;;;;3.47;1.50;;;;;;;18.91;42.71;102562.31;4986820;28;20045;-69
2023/01/03 08:37:45;;;;;;;2.88;1.40;;;;;;;18.85;42.83;102555.59;4987086;28;20064;-69
2023/01/03 08:40:14;;;;;;;3.38;1.30;;;;;;;18.86;42.81;102552.00;4986655;28;20829;-68
2023/01/03 08:42:39;;;;;;;3.10;1.38;;;;;;;18.94;42.70;102567.41;4994913;28;20037;-68
2023/01/03 08:45:10;;;;;;;3.05;1.38;;;;;;;18.91;42.63;102573.72;4991261;28;20030;-68
2023/01/03 08:47:35;;;;;;;4.75;1.70;;;;;;;18.93;42.66;102571.00;4996091;28;20112;-68
2023/01/03 08:50:01;;;;;;;4.18;1.63;;;;;;;18.95;42.84;102571.78;4996371;28;20125;-70
2023/01/03 08:52:27;;;;;;;4.05;1.40;;;;;;;18.93;43.04;102565.72;4981524;28;20088;-72
2023/01/03 08:54:52;;;;;;;2.80;1.23;;;;;;;18.94;42.76;102573.53;4981956;28;20069;-68
2023/01/03 08:57:17;;;;;;;3.47;1.63;;;;;;;19.00;42.47;102580.28;4985626;28;20343;-69
2023/01/03 08:59:42;;;;;;;3.63;1.50;;;;;;;19.03;42.63;102588.88;4989758;28;20069;-69
2023/01/03 09:02:08;;;;;;;5.10;1.83;;;;;;;19.02;42.59;102586.31;4988002;28;20982;-69
2023/01/03 09:04:33;;;;;;;3.42;1.42;;;;;;;19.03;42.67;102588.03;4982703;28;20049;-68
2023/01/03 09:06:58;;;;;;;4.68;1.52;;;;;;;19.02;42.59;102581.88;4997005;28;20154;-71
2023/01/03 09:09:24;;;;;;;4.38;1.42;;;;;;;18.99;42.95;102581.22;4999278;28;20038;-71
2023/01/03 09:11:49;;;;;;;3.58;1.50;;;;;;;18.98;42.63;102571.59;4999526;28;20049;-70
2023/01/03 09:14:14;;;;;;;3.75;1.52;;;;;;;18.98;42.59;102580.38;4998611;28;20045;-69
2023/01/03 09:16:40;;;;;;;6.28;1.50;;;;;;;18.99;42.83;102579.44;4995856;28;20052;-69
2023/01/03 09:19:05;;;;;;;6.53;1.40;;;;;;;19.01;43.06;102585.47;4986383;28;20538;-68
2023/01/03 09:21:30;;;;;;;5.20;1.30;;;;;;;19.04;42.68;102589.72;4984598;28;20040;-71
2023/01/03 09:23:57;;;;;;;4.45;1.67;;;;;;;19.08;42.50;102590.41;4990041;28;20057;-67
2023/01/03 09:26:23;;;;;;;3.78;1.58;;;;;;;19.09;42.68;102600.91;4982291;28;20030;-69
2023/01/03 09:28:49;;;;;;;5.30;1.80;;;;;;;19.09;42.70;102598.25;4989606;28;20061;-71
2023/01/03 09:31:14;;;;;;;2.78;1.35;;;;;;;19.11;42.74;102591.09;4985725;28;20030;-68
2023/01/03 09:33:39;;;;;;;3.38;1.40;;;;;;;19.06;42.71;102576.41;4986337;28;20501;-68
2023/01/03 09:36:05;;;;;;;3.13;1.45;;;;;;;19.09;42.64;102585.03;4980521;28;20097;-70
2023/01/03 09:38:30;;;;;;;4.70;1.50;;;;;;;19.06;42.79;102586.97;4991644;28;20386;-70
2023/01/03 09:41:07;;;;;;;3.58;1.80;;;;;;;19.03;42.78;102591.50;4983861;28;20030;-69
2023/01/03 09:43:45;;;;;;;3.38;1.40;;;;;;;19.09;42.75;102592.09;4981491;28;20494;-69
2023/01/03 09:46:17;;;;;;;4.10;1.33;;;;;;;19.05;42.79;102599.34;4981969;28;20034;-70
2023/01/03 09:48:42;;;;;;;4.30;1.50;;;;;;;19.07;42.67;102593.97;4981677;28;20763;-70
2023/01/03 10:05:16;;;;;;;4.40;1.60;;;;;;;19.07;42.80;102572.84;4985743;28;20462;-72
2023/01/03 10:08:00;;;;;;;4.28;1.30;;;;;;;19.09;42.56;102571.81;4996719;28;20144;-72
2023/01/03 10:10:56;;;;;;;2.57;1.13;;;;;;;19.12;42.68;102569.00;4990220;28;20042;-70
2023/01/03 10:13:49;;;;;;;3.70;1.25;;;;;;;19.16;42.71;102581.09;4995693;28;20117;-72
2023/01/03 10:16:35;;;;;;;3.72;1.40;;;;;;;19.16;42.55;102585.53;4994281;28;20030;-68
2023/01/03 10:19:41;;;;;;;4.38;1.30;;;;;;;19.16;42.81;102577.59;4990037;28;20410;-69
2023/01/03 10:22:13;;;;;;;3.17;1.20;;;;;;;19.12;42.73;102586.63;4985137;28;20034;-67
2023/01/03 10:25:06;;;;;;;3.80;1.27;;;;;;;19.14;42.79;102582.13;4998399;28;20510;-67
2023/01/03 10:27:40;;;;;;;3.30;1.25;;;;;;;19.11;43.00;102584.94;4984206;28;20057;-72
2023/01/03 10:30:11;;;;;;;;;;;;;;;19.22;42.79;102585.19;5002252;28;20099;-70
2023/01/03 10:32:57;;;;;;;3.15;1.30;;;;;;;19.17;42.84;102577.50;4986857;28;20354;-69
2023/01/03 10:35:41;;;;;;;3.10;1.13;;;;;;;19.19;42.97;102580.06;4985404;28;20390;-69
2023/01/03 10:38:06;;;;;;;2.77;1.23;;;;;;;19.14;42.96;102571.56;4996723;28;20107;-69
2023/01/03 10:40:40;;;;;;;3.03;1.23;;;;;;;19.16;42.90;102594.28;4996247;28;20556;-71
2023/01/03 10:43:15;;;;;;;3.63;1.02;;;;;;;19.12;42.79;102574.28;4994426;28;20093;-68
2023/01/03 10:45:57;;;;;;;4.63;1.45;;;;;;;19.17;42.90;102581.97;4983520;28;20053;-72
2023/01/03 10:48:25;;;;;;;5.00;1.40;;;;;;;19.11;43.09;102569.94;4983606;28;20038;-71
2023/01/03 10:50:52;;;;;;;3.63;1.40;;;;;;;19.15;43.02;102578.53;4986150;28;20045;-73
2023/01/03 10:53:21;;;;;;;4.57;1.40;;;;;;;19.15;43.18;102576.75;4982963;28;20022;-71
2023/01/03 10:55:50;;;;;;;3.60;1.10;;;;;;;19.12;43.35;102574.28;4983220;28;20034;-71
2023/01/03 10:58:24;;;;;;;3.20;1.40;;;;;;;19.15;43.32;102576.75;4982946;28;20049;-71
2023/01/03 11:00:52;;;;;;;2.80;1.17;;;;;;;19.14;43.16;102572.41;4982210;28;20077;-74
2023/01/03 11:03:19;;;;;;;3.53;1.52;;;;;;;19.11;43.04;102567.28;4992262;28;20081;-72
2023/01/03 11:05:47;;;;;;;2.67;1.13;;;;;;;19.14;43.15;102575.03;4987991;28;20976;-72
2023/01/03 11:08:35;;;;;;;3.75;1.30;;;;;;;19.13;43.21;102573.34;4995590;28;20069;-69
2023/01/03 11:11:00;;;;;;;7.80;1.88;;;;;;;19.13;43.54;102568.03;4978422;28;20805;-71
2023/01/03 11:13:37;;;;;;;3.80;1.40;;;;;;;19.14;43.46;102568.91;4987437;28;20034;-70
2023/01/03 11:16:14;;;;;;;3.45;1.30;;;;;;;19.14;43.42;102559.19;4990240;28;20049;-70
2023/01/03 11:18:40;;;;;;;4.13;1.23;;;;;;;19.11;43.51;102561.16;4982010;28;20042;-71
2023/01/03 11:21:22;;;;;;;5.78;1.30;;;;;;;19.15;43.34;102565.31;4981122;28;20035;-71
2023/01/03 11:24:04;;;;;;;3.42;1.20;;;;;;;19.15;43.45;102568.84;4994656;28;20061;-72
2023/01/03 11:27:06;;;;;;;3.00;1.25;;;;;;;19.12;43.52;102565.50;4984777;28;20026;-72
2023/01/03 11:29:37;;;;;;;3.20;1.08;;;;;;;19.12;43.41;102561.06;4977945;28;20568;-71
2023/01/03 11:32:41;;;;;;;4.68;1.35;;;;;;;19.15;43.39;102566.19;4990230;28;20038;-70
2023/01/03 11:35:06;;;;;;;3.47;1.25;;;;;;;19.16;43.18;102570.50;4964396;28;20061;-70
2023/01/03 11:37:56;;;;;;;4.70;1.80;;;;;;;19.15;43.39;102568.84;4992769;28;20053;-70
2023/01/03 11:40:59;;;;;;;4.45;1.50;;;;;;;19.16;43.36;102573.16;4989684;28;20038;-70
2023/01/03 11:43:50;;;;;;;4.50;1.48;;;;;;;19.17;43.29;102568.75;4985232;28;20299;-70
2023/01/03 11:46:54;;;;;;;6.70;1.40;;;;;;;19.13;43.29;102562.75;4983001;28;20041;-69
2023/01/03 11:49:27;;;;;;;4.40;1.40;;;;;;;19.12;43.43;102557.56;4979700;28;20133;-68
2023/01/03 11:52:18;;;;;;;3.55;1.50;;;;;;;19.16;43.08;102561.75;4981899;28;20498;-67
2023/01/03 11:55:12;;;;;;;5.18;1.67;;;;;;;19.17;43.46;102560.81;4981873;28;20030;-71
2023/01/03 11:57:48;;;;;;;6.47;1.63;;;;;;;19.13;43.49;102549.53;4982343;28;20049;-68
2023/01/03 12:00:38;;;;;;;4.32;1.70;;;;;;;19.14;43.35;102547.78;4981793;28;20039;-69
2023/01/03 12:03:08;;;;;;;5.63;1.75;;;;;;;19.13;43.31;102541.63;4987480;28;20044;-68
2023/01/03 12:05:46;;;;;;;4.22;1.55;;;;;;;19.12;43.62;102539.06;4981962;28;20034;-68
2023/01/03 12:08:11;;;;;;;6.03;1.90;;;;;;;19.12;43.54;102539.94;4981716;28;20038;-68
2023/01/03 12:11:14;;;;;;;4.90;1.60;;;;;;;19.14;43.63;102530.13;4988986;28;20375;-69
2023/01/03 12:13:49;;;;;;;5.65;1.30;;;;;;;19.12;43.62;102525.84;4993200;28;20512;-69
2023/01/03 12:16:25;;;;;;;4.78;1.48;;;;;;;19.12;43.55;102512.63;4981557;28;20145;-69
2023/01/03 12:19:01;;;;;;;4.72;1.50;;;;;;;19.15;43.30;102517.75;4993940;28;20046;-67
2023/01/03 12:21:35;;;;;;;3.85;1.30;;;;;;;19.14;43.37;102518.72;4996317;28;20145;-67
2023/01/03 12:24:04;;;;;;;3.63;1.35;;;;;;;19.14;43.34;102514.25;4981197;28;20042;-68
2023/01/03 12:26:32;;;;;;;2.90;1.23;;;;;;;19.13;43.52;102506.41;4983078;28;20050;-68
2023/01/03 12:29:20;;;;;;;5.30;1.52;;;;;;;19.12;43.59;102508.22;4988163;28;20032;-66
2023/01/03 12:31:50;;;;;;;6.13;1.30;;;;;;;19.11;43.39;102501.22;4987805;28;20030;-68
2023/01/03 12:34:41;;;;;;;4.68;1.30;;;;;;;19.14;43.60;102508.13;4990347;28;20659;-69
2023/01/03 12:37:23;;;;;;;3.35;1.33;;;;;;;19.12;43.70;102496.78;4982878;28;20173;-69
2023/01/03 12:39:55;;;;;;;3.25;1.17;;;;;;;19.09;43.72;102483.75;4981290;28;20076;-68